FTY weather

Fulton County Airport Brown Field
Atlanta, Georgia, United States

Public forecast

Using degrees Fahrenheit for public forecast. Weather courtesy of forecast.io.

METAR (pilot weather report)

Retrieved 2019/08/18 21:53 UTC (60 minutes ago):

KFTY 182153Z 22006KT 10SM BKN070 34/17 A2997 RMK AO2 SLP135 T03440167

TAF (pilot weather forecast)

Retrieved 2019/08/18 18:22 UTC (5 hours ago):

TAF KFTY 181720Z 1818/1918 22003KT P6SM SCT060 FM182000 18004KT P6SM VCSH SCT060 FM190000 13004KT P6SM SCT250 FM191000 00000KT 6SM BR FEW015 FEW035 SCT250 FM191500 00000KT P6SM FEW030